createdAt,value
2022-08-09T00:02:08.012Z,23.96
2022-08-09T00:06:18.098Z,23.97
2022-08-09T00:08:32.389Z,23.96
2022-08-09T00:12:04.034Z,23.96
2022-08-09T00:14:47.886Z,23.95
2022-08-09T00:18:05.297Z,23.96
2022-08-09T00:21:08.470Z,23.96
2022-08-09T00:24:04.421Z,23.96
2022-08-09T00:27:04.816Z,23.95
2022-08-09T00:30:23.450Z,23.96
2022-08-09T00:33:18.818Z,23.95
2022-08-09T00:36:30.819Z,23.95
2022-08-09T00:40:14.008Z,23.95
2022-08-09T00:44:11.082Z,23.96
2022-08-09T00:46:10.990Z,23.95
2022-08-09T00:49:11.164Z,23.95
2022-08-09T00:52:17.561Z,23.95
2022-08-09T00:55:16.799Z,23.95
2022-08-09T00:58:31.602Z,23.95
2022-08-09T01:01:32.627Z,23.95
2022-08-09T01:05:14.277Z,23.95
2022-08-09T01:08:48.882Z,23.95
2022-08-09T01:12:05.031Z,23.95
2022-08-09T01:15:10.018Z,23.95
2022-08-09T01:18:14.315Z,23.95
2022-08-09T01:21:20.866Z,23.95
2022-08-09T01:24:25.392Z,23.94
2022-08-09T01:27:21.663Z,23.94
2022-08-09T01:30:28.415Z,23.94
2022-08-09T01:33:33.545Z,23.94
2022-08-09T01:36:34.134Z,23.94
2022-08-09T01:39:31.283Z,23.94
2022-08-09T01:42:31.798Z,23.94
2022-08-09T01:45:29.171Z,23.94
2022-08-09T01:48:24.179Z,23.94
2022-08-09T01:51:27.782Z,23.94
2022-08-09T01:54:34.528Z,23.94
2022-08-09T01:57:30.424Z,23.93
2022-08-09T02:00:36.940Z,23.92
2022-08-09T02:03:34.916Z,23.92
2022-08-09T02:07:02.037Z,23.93
2022-08-09T02:10:05.442Z,23.91
2022-08-09T02:13:12.110Z,23.92
2022-08-09T02:16:08.829Z,23.92
2022-08-09T02:19:06.785Z,23.92
2022-08-09T02:22:08.384Z,23.93
2022-08-09T02:25:09.513Z,23.93
2022-08-09T02:28:18.118Z,23.94
2022-08-09T02:31:18.513Z,23.95
2022-08-09T02:34:41.054Z,23.94
2022-08-09T02:37:36.771Z,23.95
2022-08-09T02:40:33.732Z,23.95
2022-08-09T02:43:31.601Z,23.95
2022-08-09T02:46:52.208Z,23.95
2022-08-09T02:50:01.176Z,23.95
2022-08-09T02:53:04.400Z,23.95
2022-08-09T02:56:03.468Z,23.94
2022-08-09T02:59:00.090Z,23.95
2022-08-09T03:02:06.471Z,23.94
2022-08-09T03:05:05.736Z,23.94
2022-08-09T03:08:09.965Z,23.94
2022-08-09T03:11:10.343Z,23.94
2022-08-09T03:14:09.973Z,23.93
2022-08-09T03:17:08.688Z,23.93
2022-08-09T03:20:16.597Z,23.93
2022-08-09T03:23:24.406Z,23.93
2022-08-09T03:26:22.368Z,23.92
2022-08-09T03:29:35.735Z,23.93
2022-08-09T03:32:50.991Z,23.92
2022-08-09T03:36:12.304Z,23.92
2022-08-09T03:39:10.468Z,23.92
2022-08-09T03:42:07.747Z,23.92
2022-08-09T03:45:08.787Z,23.92
2022-08-09T03:48:06.954Z,23.91
2022-08-09T03:51:03.912Z,23.91
2022-08-09T03:54:04.877Z,23.91
2022-08-09T03:57:17.867Z,23.90
2022-08-09T04:00:23.702Z,23.90
2022-08-09T04:03:35.448Z,23.90
2022-08-09T04:06:49.113Z,23.90
2022-08-09T04:09:54.153Z,23.89
2022-08-09T04:12:57.763Z,23.90
2022-08-09T04:16:19.883Z,23.90
2022-08-09T04:19:30.405Z,23.90
2022-08-09T04:22:37.010Z,23.89
2022-08-09T04:25:40.154Z,23.89
2022-08-09T04:28:46.953Z,23.89
2022-08-09T04:31:47.342Z,23.88
2022-08-09T04:34:54.457Z,23.88
2022-08-09T04:37:55.954Z,23.88
2022-08-09T04:40:56.375Z,23.88
2022-08-09T04:44:06.582Z,23.88
2022-08-09T04:47:10.046Z,23.88
2022-08-09T04:50:09.986Z,23.87
2022-08-09T04:53:17.879Z,23.88
2022-08-09T04:56:26.172Z,23.87
2022-08-09T04:59:24.057Z,23.87
2022-08-09T05:02:29.775Z,23.87
2022-08-09T05:05:51.935Z,23.87
2022-08-09T05:09:00.799Z,23.87
2022-08-09T05:12:03.757Z,23.87
2022-08-09T05:15:38.696Z,23.87
2022-08-09T05:18:58.338Z,23.87
2022-08-09T05:22:33.432Z,23.87
2022-08-09T05:25:34.166Z,23.87
2022-08-09T05:28:36.292Z,23.87
2022-08-09T05:31:49.158Z,23.87
2022-08-09T05:34:58.073Z,23.87
2022-08-09T05:37:59.284Z,23.88
2022-08-09T05:41:04.098Z,23.88
2022-08-09T05:44:04.213Z,23.88
2022-08-09T05:47:12.917Z,23.88
2022-08-09T05:50:50.570Z,23.87
2022-08-09T05:53:57.618Z,23.88
2022-08-09T05:57:03.968Z,23.87
2022-08-09T06:00:17.424Z,23.87
2022-08-09T06:03:20.163Z,23.86
2022-08-09T06:06:23.050Z,23.87
2022-08-09T06:09:54.780Z,23.87
2022-08-09T06:12:52.087Z,23.87
2022-08-09T06:16:01.570Z,23.87
2022-08-09T06:19:14.281Z,23.88
2022-08-09T06:22:15.652Z,23.88
2022-08-09T06:25:17.077Z,23.89
2022-08-09T06:28:27.409Z,23.89
2022-08-09T06:32:08.168Z,23.89
2022-08-09T06:35:02.606Z,23.89
2022-08-09T06:38:15.803Z,23.89
2022-08-09T06:42:07.667Z,23.90
2022-08-09T06:45:00.163Z,23.91
2022-08-09T06:48:30.687Z,23.92
2022-08-09T06:51:40.220Z,23.93
2022-08-09T06:54:47.240Z,23.94
2022-08-09T06:58:03.065Z,23.95
2022-08-09T07:01:09.414Z,23.95
2022-08-09T07:04:24.518Z,23.95
2022-08-09T07:07:59.592Z,23.95
2022-08-09T07:11:03.923Z,23.96
2022-08-09T07:14:12.292Z,23.96
2022-08-09T07:17:39.977Z,23.96
2022-08-09T07:20:57.081Z,23.96
2022-08-09T07:24:00.088Z,23.97
2022-08-09T07:26:59.338Z,23.97
2022-08-09T07:30:14.495Z,23.98
2022-08-09T07:33:23.292Z,23.98
2022-08-09T07:36:39.312Z,23.98
2022-08-09T07:39:48.162Z,23.99
2022-08-09T07:43:14.824Z,23.99
2022-08-09T07:46:27.973Z,23.99
2022-08-09T07:49:52.226Z,23.99
2022-08-09T07:53:02.914Z,24.00
2022-08-09T07:56:26.661Z,24.00
2022-08-09T07:59:46.022Z,24.00
2022-08-09T08:03:04.617Z,24.01
2022-08-09T08:06:09.066Z,24.01
2022-08-09T08:09:38.533Z,24.01
2022-08-09T08:12:50.391Z,24.02
2022-08-09T08:16:01.372Z,24.02
2022-08-09T08:19:10.299Z,24.03
2022-08-09T08:22:28.614Z,24.03
2022-08-09T08:25:40.424Z,24.03
2022-08-09T08:28:57.671Z,24.03
2022-08-09T08:32:14.359Z,24.04
2022-08-09T08:35:53.102Z,24.04
2022-08-09T08:38:57.311Z,24.05
2022-08-09T08:42:06.349Z,24.06
2022-08-09T08:45:37.066Z,24.07
2022-08-09T08:48:51.794Z,24.08
2022-08-09T08:52:01.892Z,24.08
2022-08-09T08:55:23.427Z,24.09
2022-08-09T08:58:33.013Z,24.09
2022-08-09T09:01:57.350Z,24.10
2022-08-09T09:05:10.225Z,24.11
2022-08-09T09:08:29.797Z,24.10
2022-08-09T09:11:39.390Z,24.11
2022-08-09T09:14:45.684Z,24.12
2022-08-09T09:17:53.501Z,24.12
2022-08-09T09:21:09.208Z,24.13
2022-08-09T09:24:21.447Z,24.13
2022-08-09T09:28:05.155Z,24.13
2022-08-09T09:31:02.976Z,24.14
2022-08-09T09:34:29.399Z,24.14
2022-08-09T09:37:41.006Z,24.16
2022-08-09T09:40:50.884Z,24.16
2022-08-09T09:44:25.863Z,24.17
2022-08-09T09:47:50.416Z,24.19
2022-08-09T09:51:11.710Z,24.20
2022-08-09T09:54:48.869Z,24.20
2022-08-09T09:58:17.405Z,24.22
2022-08-09T10:01:31.140Z,24.23
2022-08-09T10:04:48.407Z,24.23
2022-08-09T10:08:27.616Z,24.25
2022-08-09T10:12:00.043Z,24.26
2022-08-09T10:15:17.545Z,24.26
2022-08-09T10:18:29.024Z,24.27
2022-08-09T10:21:41.346Z,24.28
2022-08-09T10:24:57.411Z,24.29
2022-08-09T10:28:09.350Z,24.29
2022-08-09T10:34:45.443Z,24.31
2022-08-09T10:38:00.121Z,24.31
2022-08-09T10:41:08.808Z,24.32
2022-08-09T10:44:17.401Z,24.32
2022-08-09T10:48:19.381Z,24.33
2022-08-09T10:51:40.996Z,24.34
2022-08-09T10:54:42.697Z,24.35
2022-08-09T10:57:51.716Z,24.35
2022-08-09T11:03:02.814Z,24.36
2022-08-09T11:04:32.738Z,24.37
2022-08-09T11:07:56.872Z,24.38
2022-08-09T11:11:08.959Z,24.40
2022-08-09T11:14:44.297Z,24.42
2022-08-09T11:18:02.586Z,24.43
2022-08-09T11:21:14.412Z,24.44
2022-08-09T11:24:18.279Z,24.44
2022-08-09T11:28:03.222Z,24.45
2022-08-09T11:31:12.475Z,24.44
2022-08-09T11:34:57.209Z,24.44
2022-08-09T11:38:32.196Z,24.44
2022-08-09T11:41:37.836Z,24.44
2022-08-09T11:44:57.307Z,24.44
2022-08-09T11:48:25.065Z,24.44
2022-08-09T11:52:54.224Z,24.44
2022-08-09T11:55:53.929Z,24.44
2022-08-09T11:59:15.702Z,24.44
2022-08-09T12:02:40.932Z,24.43
2022-08-09T12:05:48.308Z,24.42
2022-08-09T12:08:55.318Z,24.42
2022-08-09T12:12:20.017Z,24.41
2022-08-09T12:15:48.742Z,24.40
2022-08-09T12:19:06.519Z,24.38
2022-08-09T12:22:23.351Z,24.37
2022-08-09T12:25:50.823Z,24.35
2022-08-09T12:29:33.070Z,24.34
2022-08-09T12:32:36.932Z,24.34
2022-08-09T12:35:50.784Z,24.33
2022-08-09T12:39:04.270Z,24.34
2022-08-09T12:42:17.064Z,24.34
2022-08-09T12:45:38.639Z,24.33
2022-08-09T12:48:43.201Z,24.33
2022-08-09T12:52:03.371Z,24.33
2022-08-09T12:56:14.580Z,24.33
2022-08-09T12:59:09.204Z,24.32
2022-08-09T13:02:16.145Z,24.32
2022-08-09T13:05:52.446Z,24.32
2022-08-09T13:09:25.234Z,24.32
2022-08-09T13:13:09.094Z,24.31
2022-08-09T13:16:27.476Z,24.31
2022-08-09T13:20:10.364Z,24.30
2022-08-09T13:24:15.963Z,24.30
2022-08-09T13:26:55.197Z,24.29
2022-08-09T13:30:48.938Z,24.29
2022-08-09T13:33:52.513Z,24.29
2022-08-09T13:37:07.452Z,24.28
2022-08-09T13:41:45.908Z,24.28
2022-08-09T13:43:42.147Z,24.28
2022-08-09T13:47:29.234Z,24.28
2022-08-09T13:50:30.412Z,24.28
2022-08-09T13:53:42.979Z,24.27
2022-08-09T13:56:54.416Z,24.27
2022-08-09T14:00:02.916Z,24.26
2022-08-09T14:04:03.702Z,24.25
2022-08-09T14:06:46.631Z,24.26
2022-08-09T14:09:57.140Z,24.26
2022-08-09T14:13:21.882Z,24.27
2022-08-09T14:16:36.305Z,24.26
2022-08-09T14:19:48.567Z,24.26
2022-08-09T14:22:54.563Z,24.26
2022-08-09T14:26:01.599Z,24.26
2022-08-09T14:30:34.289Z,24.25
2022-08-09T14:33:01.819Z,24.24
2022-08-09T14:36:25.640Z,24.23
2022-08-09T14:39:47.946Z,24.22
2022-08-09T14:42:58.317Z,24.21
2022-08-09T14:46:54.206Z,24.21
2022-08-09T14:49:23.632Z,24.22
2022-08-09T14:52:28.569Z,24.21
2022-08-09T14:55:33.107Z,24.20
2022-08-09T14:58:50.435Z,24.20
2022-08-09T15:02:01.400Z,24.20
2022-08-09T15:05:17.586Z,24.19
2022-08-09T15:08:25.837Z,24.19
2022-08-09T15:11:48.247Z,24.19
2022-08-09T15:15:00.956Z,24.20
2022-08-09T15:18:14.774Z,24.19
2022-08-09T15:21:58.159Z,24.20
2022-08-09T15:24:41.442Z,24.22
2022-08-09T15:28:00.703Z,24.23
2022-08-09T15:31:18.913Z,24.23
2022-08-09T15:34:33.083Z,24.24
2022-08-09T15:37:57.329Z,24.24
2022-08-09T15:41:09.918Z,24.25
2022-08-09T15:44:15.242Z,24.26
2022-08-09T15:47:31.860Z,24.26
2022-08-09T15:51:02.578Z,24.28
2022-08-09T15:54:33.564Z,24.27
2022-08-09T15:57:59.641Z,24.27
2022-08-09T16:01:11.097Z,24.26
2022-08-09T16:04:20.701Z,24.27
2022-08-09T16:07:39.069Z,24.27
2022-08-09T16:10:56.422Z,24.26
2022-08-09T16:14:06.268Z,24.27
2022-08-09T16:17:17.360Z,24.26
2022-08-09T16:20:27.653Z,24.27
2022-08-09T16:23:32.510Z,24.26
2022-08-09T16:26:34.023Z,24.26
2022-08-09T16:29:37.927Z,24.27
2022-08-09T16:33:16.080Z,24.26
2022-08-09T16:36:19.751Z,24.26
2022-08-09T16:39:26.007Z,24.26
2022-08-09T16:42:35.650Z,24.26
2022-08-09T16:45:44.393Z,24.27
2022-08-09T16:48:53.106Z,24.27
2022-08-09T16:52:09.159Z,24.27
2022-08-09T16:55:18.268Z,24.26
2022-08-09T16:58:27.418Z,24.26
2022-08-09T17:01:39.117Z,24.24
2022-08-09T17:05:02.699Z,24.24
2022-08-09T17:08:44.907Z,24.23
2022-08-09T17:11:48.278Z,24.23
2022-08-09T17:14:58.584Z,24.23
2022-08-09T17:18:16.696Z,24.24
2022-08-09T17:21:32.295Z,24.24
2022-08-09T17:24:47.880Z,24.23
2022-08-09T17:27:57.665Z,24.24
2022-08-09T17:31:04.304Z,24.23
2022-08-09T17:34:59.817Z,24.22
2022-08-09T17:38:14.243Z,24.22
2022-08-09T17:41:16.762Z,24.21
2022-08-09T17:44:38.608Z,24.21
2022-08-09T17:47:49.668Z,24.21
2022-08-09T17:51:10.377Z,24.21
2022-08-09T17:54:28.160Z,24.21
2022-08-09T17:58:03.641Z,24.20
2022-08-09T18:01:03.313Z,24.20
2022-08-09T18:04:14.721Z,24.19
2022-08-09T18:07:22.317Z,24.18
2022-08-09T18:10:38.553Z,24.17
2022-08-09T18:13:58.859Z,24.16
2022-08-09T18:17:18.658Z,24.16
2022-08-09T18:20:56.854Z,24.15
2022-08-09T18:24:10.299Z,24.14
2022-08-09T18:27:59.746Z,24.13
2022-08-09T18:30:49.717Z,24.12
2022-08-09T18:33:58.635Z,24.13
2022-08-09T18:37:47.767Z,24.13
2022-08-09T18:40:51.713Z,24.12
2022-08-09T18:44:13.105Z,24.11
2022-08-09T18:47:27.793Z,24.10
2022-08-09T18:50:51.453Z,24.11
2022-08-09T18:54:10.543Z,24.09
2022-08-09T18:57:43.123Z,24.09
2022-08-09T19:00:51.765Z,24.08
2022-08-09T19:04:06.423Z,24.08
2022-08-09T19:07:10.321Z,24.08
2022-08-09T19:10:22.757Z,24.07
2022-08-09T19:13:38.502Z,24.07
2022-08-09T19:17:04.236Z,24.06
2022-08-09T19:20:34.238Z,24.05
2022-08-09T19:24:39.576Z,24.05
2022-08-09T19:27:14.793Z,24.06
2022-08-09T19:30:32.429Z,24.07
2022-08-09T19:33:36.395Z,24.07
2022-08-09T19:36:43.963Z,24.09
2022-08-09T19:40:04.476Z,24.09
2022-08-09T19:43:58.214Z,24.09
2022-08-09T19:46:51.044Z,24.09
2022-08-09T19:50:08.235Z,24.08
2022-08-09T19:53:37.140Z,24.08
2022-08-09T19:56:56.731Z,24.08
2022-08-09T20:00:06.736Z,24.07
2022-08-09T20:04:08.197Z,24.06
2022-08-09T20:06:36.597Z,24.06
2022-08-09T20:09:45.876Z,24.05
2022-08-09T20:13:03.480Z,24.05
2022-08-09T20:16:33.521Z,24.04
2022-08-09T20:19:48.423Z,24.03
2022-08-09T20:23:07.847Z,24.03
2022-08-09T20:26:17.007Z,24.03
2022-08-09T20:29:21.637Z,24.03
2022-08-09T20:32:39.825Z,24.02
2022-08-09T20:35:51.740Z,24.02
2022-08-09T20:39:27.662Z,24.02
2022-08-09T20:42:46.547Z,24.00
2022-08-09T20:46:33.388Z,24.00
2022-08-09T20:49:35.789Z,23.99
2022-08-09T20:52:40.778Z,23.99
2022-08-09T20:56:01.934Z,23.98
2022-08-09T20:59:12.389Z,23.98
2022-08-09T21:02:22.591Z,23.97
2022-08-09T21:05:57.234Z,23.97
2022-08-09T21:09:11.667Z,23.96
2022-08-09T21:15:56.815Z,23.95
2022-08-09T21:20:17.248Z,23.94
2022-08-09T21:22:38.575Z,23.94
2022-08-09T21:26:01.848Z,23.93
2022-08-09T21:29:13.497Z,23.93
2022-08-09T21:32:35.541Z,23.92
2022-08-09T21:35:40.874Z,23.90
2022-08-09T21:39:04.853Z,23.89
2022-08-09T21:42:10.681Z,23.90
2022-08-09T21:45:17.411Z,23.89
2022-08-09T21:48:23.192Z,23.88
2022-08-09T21:51:36.299Z,23.87
2022-08-09T21:54:46.342Z,23.86
2022-08-09T21:57:58.742Z,23.85
2022-08-09T22:01:00.740Z,23.84
2022-08-09T22:04:02.688Z,23.83
2022-08-09T22:07:12.262Z,23.82
2022-08-09T22:10:22.981Z,23.81
2022-08-09T22:13:22.645Z,23.79
2022-08-09T22:16:24.517Z,23.78
2022-08-09T22:19:59.620Z,23.77
2022-08-09T22:22:50.261Z,23.76
2022-08-09T22:26:06.055Z,23.76
2022-08-09T22:29:17.875Z,23.76
2022-08-09T22:32:29.844Z,23.74
2022-08-09T22:36:03.280Z,23.74
2022-08-09T22:38:55.481Z,23.74
2022-08-09T22:42:00.840Z,23.73
2022-08-09T22:48:13.473Z,23.73
2022-08-09T22:48:35.522Z,23.73
2022-08-09T22:51:39.384Z,23.72
2022-08-09T22:54:42.595Z,23.72
2022-08-09T22:57:59.600Z,23.72
2022-08-09T23:01:00.623Z,23.71
2022-08-09T23:04:03.421Z,23.71
2022-08-09T23:08:23.391Z,23.70
2022-08-09T23:10:44.940Z,23.69
2022-08-09T23:13:49.471Z,23.68
2022-08-09T23:16:47.645Z,23.68
2022-08-09T23:20:06.859Z,23.68
2022-08-09T23:23:11.904Z,23.67
2022-08-09T23:26:15.478Z,23.67
2022-08-09T23:29:16.446Z,23.67
2022-08-09T23:32:15.098Z,23.67
2022-08-09T23:35:14.697Z,23.68
2022-08-09T23:38:18.619Z,23.69
2022-08-09T23:41:27.597Z,23.70
2022-08-09T23:44:26.855Z,23.70
2022-08-09T23:47:27.797Z,23.70
2022-08-09T23:50:25.056Z,23.70
2022-08-09T23:53:22.689Z,23.69
2022-08-09T23:56:52.243Z,23.69
